sensor_id;sensor_type;location;lat;lon;timestamp;pressure;altitude;pressure_sealevel;temperature;humidity
8717;BME280;4395;48.554;8.820;2023-12-29T00:01:41;95997.91;;;8.04;75.69
8717;BME280;4395;48.554;8.820;2023-12-29T00:03:44;95980.75;;;8.03;75.48
8717;BME280;4395;48.554;8.820;2023-12-29T00:05:47;95990.59;;;8.01;75.54
8717;BME280;4395;48.554;8.820;2023-12-29T00:07:50;95986.97;;;8.02;75.54
8717;BME280;4395;48.554;8.820;2023-12-29T00:09:53;95978.16;;;8.03;75.47
8717;BME280;4395;48.554;8.820;2023-12-29T00:11:55;95969.03;;;8.00;75.35
8717;BME280;4395;48.554;8.820;2023-12-29T00:13:58;95975.03;;;8.01;75.29
8717;BME280;4395;48.554;8.820;2023-12-29T00:16:01;95971.88;;;7.99;75.49
8717;BME280;4395;48.554;8.820;2023-12-29T00:18:04;95960.97;;;7.97;75.35
8717;BME280;4395;48.554;8.820;2023-12-29T00:20:08;95963.31;;;7.98;75.57
8717;BME280;4395;48.554;8.820;2023-12-29T00:22:13;95968.75;;;7.97;75.60
8717;BME280;4395;48.554;8.820;2023-12-29T00:24:16;95973.16;;;7.96;75.64
8717;BME280;4395;48.554;8.820;2023-12-29T00:26:19;95967.19;;;7.95;75.63
8717;BME280;4395;48.554;8.820;2023-12-29T00:28:27;95958.84;;;7.93;75.51
8717;BME280;4395;48.554;8.820;2023-12-29T00:30:30;95962.47;;;7.92;75.40
8717;BME280;4395;48.554;8.820;2023-12-29T00:32:53;95958.84;;;7.93;75.05
8717;BME280;4395;48.554;8.820;2023-12-29T00:34:56;95969.22;;;7.93;75.16
8717;BME280;4395;48.554;8.820;2023-12-29T00:36:59;95968.09;;;7.89;75.46
8717;BME280;4395;48.554;8.820;2023-12-29T00:39:00;95966.06;;;7.91;75.52
8717;BME280;4395;48.554;8.820;2023-12-29T00:41:06;95955.69;;;7.91;75.16
8717;BME280;4395;48.554;8.820;2023-12-29T00:43:08;95957.28;;;7.92;75.20
8717;BME280;4395;48.554;8.820;2023-12-29T00:45:12;95961.91;;;7.90;75.19
8717;BME280;4395;48.554;8.820;2023-12-29T00:47:14;95960.56;;;7.88;74.95
8717;BME280;4395;48.554;8.820;2023-12-29T00:49:16;95968.09;;;7.89;75.09
8717;BME280;4395;48.554;8.820;2023-12-29T00:51:20;95982.31;;;7.87;75.25
8717;BME280;4395;48.554;8.820;2023-12-29T00:53:22;95977.34;;;7.85;75.51
8717;BME280;4395;48.554;8.820;2023-12-29T00:55:25;95968.25;;;7.83;75.74
8717;BME280;4395;48.554;8.820;2023-12-29T00:57:29;95974.69;;;7.80;76.14
8717;BME280;4395;48.554;8.820;2023-12-29T00:59:32;95973.91;;;7.80;75.94
8717;BME280;4395;48.554;8.820;2023-12-29T01:01:39;95974.13;;;7.78;75.80
8717;BME280;4395;48.554;8.820;2023-12-29T01:03:42;95970.97;;;7.76;75.81
8717;BME280;4395;48.554;8.820;2023-12-29T01:05:46;95970.91;;;7.71;76.10
8717;BME280;4395;48.554;8.820;2023-12-29T01:07:49;95967.75;;;7.69;76.24
8717;BME280;4395;48.554;8.820;2023-12-29T01:09:52;95964.16;;;7.70;76.25
8717;BME280;4395;48.554;8.820;2023-12-29T01:11:56;95972.50;;;7.72;76.18
8717;BME280;4395;48.554;8.820;2023-12-29T01:14:00;95965.72;;;7.71;76.19
8717;BME280;4395;48.554;8.820;2023-12-29T01:16:03;95967.31;;;7.72;75.93
8717;BME280;4395;48.554;8.820;2023-12-29T01:18:06;95969.91;;;7.72;76.16
8717;BME280;4395;48.554;8.820;2023-12-29T01:20:10;95971.16;;;7.70;76.04
8717;BME280;4395;48.554;8.820;2023-12-29T01:22:13;95983.88;;;7.71;76.22
8717;BME280;4395;48.554;8.820;2023-12-29T01:24:16;95981.75;;;7.68;76.17
8717;BME280;4395;48.554;8.820;2023-12-29T01:26:27;95980.63;;;7.64;76.36
8717;BME280;4395;48.554;8.820;2023-12-29T01:28:30;95977.47;;;7.62;76.64
8717;BME280;4395;48.554;8.820;2023-12-29T01:30:33;95982.44;;;7.64;77.01
8717;BME280;4395;48.554;8.820;2023-12-29T01:32:36;95981.19;;;7.66;76.80
8717;BME280;4395;48.554;8.820;2023-12-29T01:34:39;95974.97;;;7.67;76.79
8717;BME280;4395;48.554;8.820;2023-12-29T01:36:43;95971.16;;;7.70;76.82
8717;BME280;4395;48.554;8.820;2023-12-29T01:38:46;95981.28;;;7.71;76.81
8717;BME280;4395;48.554;8.820;2023-12-29T01:40:49;95976.63;;;7.73;77.10
8717;BME280;4395;48.554;8.820;2023-12-29T01:42:53;95963.22;;;7.76;76.71
8717;BME280;4395;48.554;8.820;2023-12-29T01:44:56;95967.59;;;7.76;76.66
8717;BME280;4395;48.554;8.820;2023-12-29T01:47:01;95972.78;;;7.76;76.60
8717;BME280;4395;48.554;8.820;2023-12-29T01:49:04;95965.00;;;7.76;76.46
8717;BME280;4395;48.554;8.820;2023-12-29T01:51:06;95961.63;;;7.75;76.67
8717;BME280;4395;48.554;8.820;2023-12-29T01:53:09;95961.88;;;7.74;76.91
8717;BME280;4395;48.554;8.820;2023-12-29T01:55:16;95957.72;;;7.73;76.83
8717;BME280;4395;48.554;8.820;2023-12-29T01:57:20;95967.31;;;7.72;76.86
8717;BME280;4395;48.554;8.820;2023-12-29T01:59:32;95972.00;;;7.75;76.93
8717;BME280;4395;48.554;8.820;2023-12-29T02:01:39;95966.81;;;7.75;76.88
8717;BME280;4395;48.554;8.820;2023-12-29T02:03:44;95960.84;;;7.75;76.88
8717;BME280;4395;48.554;8.820;2023-12-29T02:05:46;95968.84;;;7.73;77.02
8717;BME280;4395;48.554;8.820;2023-12-29T02:07:51;95970.91;;;7.71;77.22
8717;BME280;4395;48.554;8.820;2023-12-29T02:09:53;95969.25;;;7.65;77.36
8717;BME280;4395;48.554;8.820;2023-12-29T02:11:56;95967.09;;;7.62;77.68
8717;BME280;4395;48.554;8.820;2023-12-29T02:13:59;95963.88;;;7.55;77.86
8717;BME280;4395;48.554;8.820;2023-12-29T02:16:07;95966.25;;;7.56;78.39
8717;BME280;4395;48.554;8.820;2023-12-29T02:18:14;95958.13;;;7.53;78.60
8717;BME280;4395;48.554;8.820;2023-12-29T02:20:20;95966.38;;;7.50;79.08
8717;BME280;4395;48.554;8.820;2023-12-29T02:22:23;95966.94;;;7.52;79.38
8717;BME280;4395;48.554;8.820;2023-12-29T02:24:26;95952.41;;;7.51;79.43
8717;BME280;4395;48.554;8.820;2023-12-29T02:26:31;95957.81;;;7.49;79.57
8717;BME280;4395;48.554;8.820;2023-12-29T02:28:39;95953.91;;;7.47;79.98
8717;BME280;4395;48.554;8.820;2023-12-29T02:30:49;95953.34;;;7.45;80.06
8717;BME280;4395;48.554;8.820;2023-12-29T02:32:55;95947.16;;;7.46;80.27
8717;BME280;4395;48.554;8.820;2023-12-29T02:35:01;95940.06;;;7.41;80.44
8717;BME280;4395;48.554;8.820;2023-12-29T02:37:04;95934.09;;;7.41;80.64
8717;BME280;4395;48.554;8.820;2023-12-29T02:39:08;95936.13;;;7.39;81.02
8717;BME280;4395;48.554;8.820;2023-12-29T02:41:12;95938.69;;;7.39;81.08
8717;BME280;4395;48.554;8.820;2023-12-29T02:43:18;95939.19;;;7.36;81.42
8717;BME280;4395;48.554;8.820;2023-12-29T02:45:21;95937.38;;;7.36;81.56
8717;BME280;4395;48.554;8.820;2023-12-29T02:47:24;95931.72;;;7.39;81.47
8717;BME280;4395;48.554;8.820;2023-12-29T02:49:28;95921.84;;;7.36;81.57
8717;BME280;4395;48.554;8.820;2023-12-29T02:51:31;95935.03;;;7.35;81.52
8717;BME280;4395;48.554;8.820;2023-12-29T02:53:35;95932.97;;;7.37;81.88
8717;BME280;4395;48.554;8.820;2023-12-29T02:55:38;95930.06;;;7.33;81.79
8717;BME280;4395;48.554;8.820;2023-12-29T02:57:40;95926.69;;;7.33;81.91
8717;BME280;4395;48.554;8.820;2023-12-29T02:59:45;95928.72;;;7.31;82.31
8717;BME280;4395;48.554;8.820;2023-12-29T03:01:47;95915.53;;;7.32;82.40
8717;BME280;4395;48.554;8.820;2023-12-29T03:03:50;95911.94;;;7.33;82.54
8717;BME280;4395;48.554;8.820;2023-12-29T03:05:53;95917.91;;;7.34;82.50
8717;BME280;4395;48.554;8.820;2023-12-29T03:07:55;95921.06;;;7.36;82.67
8717;BME280;4395;48.554;8.820;2023-12-29T03:09:59;95910.13;;;7.34;82.88
8717;BME280;4395;48.554;8.820;2023-12-29T03:12:03;95911.94;;;7.33;82.80
8717;BME280;4395;48.554;8.820;2023-12-29T03:14:05;95910.69;;;7.36;82.82
8717;BME280;4395;48.554;8.820;2023-12-29T03:16:10;95899.84;;;7.39;82.97
8717;BME280;4395;48.554;8.820;2023-12-29T03:18:13;95897.81;;;7.41;82.89
8717;BME280;4395;48.554;8.820;2023-12-29T03:20:16;95899.84;;;7.39;82.90
8717;BME280;4395;48.554;8.820;2023-12-29T03:22:19;95908.63;;;7.38;82.69
8717;BME280;4395;48.554;8.820;2023-12-29T03:24:22;95903.47;;;7.38;83.02
8717;BME280;4395;48.554;8.820;2023-12-29T03:26:25;95914.31;;;7.35;82.94
8717;BME280;4395;48.554;8.820;2023-12-29T03:28:28;95903.16;;;7.34;83.07
8717;BME280;4395;48.554;8.820;2023-12-29T03:30:31;95896.97;;;7.35;83.03
8717;BME280;4395;48.554;8.820;2023-12-29T03:32:35;95893.59;;;7.35;83.21
8717;BME280;4395;48.554;8.820;2023-12-29T03:34:38;95886.13;;;7.38;83.30
8717;BME280;4395;48.554;8.820;2023-12-29T03:36:41;95877.56;;;7.38;83.31
8717;BME280;4395;48.554;8.820;2023-12-29T03:38:44;95875.97;;;7.37;83.19
8717;BME280;4395;48.554;8.820;2023-12-29T03:40:47;95878.84;;;7.35;83.12
8717;BME280;4395;48.554;8.820;2023-12-29T03:42:50;95879.63;;;7.36;83.20
8717;BME280;4395;48.554;8.820;2023-12-29T03:44:52;95877.56;;;7.38;83.48
8717;BME280;4395;48.554;8.820;2023-12-29T03:46:56;95871.84;;;7.36;83.35
8717;BME280;4395;48.554;8.820;2023-12-29T03:49:00;95875.97;;;7.37;83.25
8717;BME280;4395;48.554;8.820;2023-12-29T03:51:04;95877.56;;;7.38;83.35
8717;BME280;4395;48.554;8.820;2023-12-29T03:53:06;95880.16;;;7.38;83.30
8717;BME280;4395;48.554;8.820;2023-12-29T03:55:09;95870.34;;;7.40;83.30
8717;BME280;4395;48.554;8.820;2023-12-29T03:57:14;95871.91;;;7.41;83.16
8717;BME280;4395;48.554;8.820;2023-12-29T03:59:16;95870.34;;;7.40;83.48
8717;BME280;4395;48.554;8.820;2023-12-29T04:01:19;95865.16;;;7.40;83.47
8717;BME280;4395;48.554;8.820;2023-12-29T04:03:22;95861.78;;;7.39;83.49
8717;BME280;4395;48.554;8.820;2023-12-29T04:05:27;95870.91;;;7.42;83.40
8717;BME280;4395;48.554;8.820;2023-12-29T04:07:30;95865.25;;;7.45;83.31
8717;BME280;4395;48.554;8.820;2023-12-29T04:09:32;95873.81;;;7.45;83.50
8717;BME280;4395;48.554;8.820;2023-12-29T04:11:35;95855.44;;;7.47;83.19
8717;BME280;4395;48.554;8.820;2023-12-29T04:13:38;95865.31;;;7.50;83.28
8717;BME280;4395;48.554;8.820;2023-12-29T04:15:40;95872.09;;;7.51;83.25
8717;BME280;4395;48.554;8.820;2023-12-29T04:17:44;95871.84;;;7.52;83.28
8717;BME280;4395;48.554;8.820;2023-12-29T04:19:48;95868.47;;;7.52;83.11
8717;BME280;4395;48.554;8.820;2023-12-29T04:21:52;95879.94;;;7.56;83.11
8717;BME280;4395;48.554;8.820;2023-12-29T04:23:55;95876.56;;;7.55;83.26
8717;BME280;4395;48.554;8.820;2023-12-29T04:25:58;95879.50;;;7.59;83.27
8717;BME280;4395;48.554;8.820;2023-12-29T04:27:59;95878.78;;;7.64;83.01
8717;BME280;4395;48.554;8.820;2023-12-29T04:30:04;95874.59;;;7.63;83.00
8717;BME280;4395;48.554;8.820;2023-12-29T04:32:07;95874.84;;;7.61;83.11
8717;BME280;4395;48.554;8.820;2023-12-29T04:34:10;95878.22;;;7.62;83.06
8717;BME280;4395;48.554;8.820;2023-12-29T04:36:13;95878.53;;;7.65;82.88
8717;BME280;4395;48.554;8.820;2023-12-29T04:38:17;95883.72;;;7.65;82.82
8717;BME280;4395;48.554;8.820;2023-12-29T04:40:21;95883.41;;;7.62;82.81
8717;BME280;4395;48.554;8.820;2023-12-29T04:42:24;95888.56;;;7.62;82.82
8717;BME280;4395;48.554;8.820;2023-12-29T04:44:27;95883.72;;;7.65;82.72
8717;BME280;4395;48.554;8.820;2023-12-29T04:46:29;95881.13;;;7.65;82.79
8717;BME280;4395;48.554;8.820;2023-12-29T04:48:31;95875.94;;;7.65;82.95
8717;BME280;4395;48.554;8.820;2023-12-29T04:50:34;95869.75;;;7.66;82.73
8717;BME280;4395;48.554;8.820;2023-12-29T04:52:37;95872.09;;;7.68;82.90
8717;BME280;4395;48.554;8.820;2023-12-29T04:54:41;95865.34;;;7.67;82.73
8717;BME280;4395;48.554;8.820;2023-12-29T04:56:45;95864.09;;;7.69;82.84
8717;BME280;4395;48.554;8.820;2023-12-29T04:58:47;95865.69;;;7.70;82.72
8717;BME280;4395;48.554;8.820;2023-12-29T05:00:50;95864.34;;;7.68;82.70
8717;BME280;4395;48.554;8.820;2023-12-29T05:02:53;95860.50;;;7.70;82.69
8717;BME280;4395;48.554;8.820;2023-12-29T05:04:56;95869.28;;;7.69;82.93
8717;BME280;4395;48.554;8.820;2023-12-29T05:06:59;95867.72;;;7.68;82.92
8717;BME280;4395;48.554;8.820;2023-12-29T05:09:02;95864.88;;;7.70;82.93
8717;BME280;4395;48.554;8.820;2023-12-29T05:11:06;95865.19;;;7.73;82.77
8717;BME280;4395;48.554;8.820;2023-12-29T05:13:09;95866.28;;;7.77;82.89
8717;BME280;4395;48.554;8.820;2023-12-29T05:15:12;95870.22;;;7.80;82.72
8717;BME280;4395;48.554;8.820;2023-12-29T05:17:15;95858.84;;;7.81;82.55
8717;BME280;4395;48.554;8.820;2023-12-29T05:19:18;95873.66;;;7.85;82.63
8717;BME280;4395;48.554;8.820;2023-12-29T05:21:21;95864.88;;;7.86;82.37
8717;BME280;4395;48.554;8.820;2023-12-29T05:23:25;95866.44;;;7.87;82.14
8717;BME280;4395;48.554;8.820;2023-12-29T05:25:28;95863.63;;;7.89;82.07
8717;BME280;4395;48.554;8.820;2023-12-29T05:27:32;95878.38;;;7.88;82.10
8717;BME280;4395;48.554;8.820;2023-12-29T05:29:36;95869.91;;;7.93;81.91
8717;BME280;4395;48.554;8.820;2023-12-29T05:31:39;95871.16;;;7.90;82.08
8717;BME280;4395;48.554;8.820;2023-12-29T05:33:43;95861.91;;;7.94;81.90
8717;BME280;4395;48.554;8.820;2023-12-29T05:35:46;95871.38;;;7.89;81.90
8717;BME280;4395;48.554;8.820;2023-12-29T05:37:49;95873.75;;;7.90;82.16
8717;BME280;4395;48.554;8.820;2023-12-29T05:39:52;95864.50;;;7.94;81.95
8717;BME280;4395;48.554;8.820;2023-12-29T05:41:55;95867.63;;;7.97;81.86
8717;BME280;4395;48.554;8.820;2023-12-29T05:43:58;95870.22;;;7.97;81.95
8717;BME280;4395;48.554;8.820;2023-12-29T05:46:03;95877.44;;;7.94;81.81
8717;BME280;4395;48.554;8.820;2023-12-29T05:48:11;95872.25;;;7.94;81.78
8717;BME280;4395;48.554;8.820;2023-12-29T05:50:15;95879.31;;;7.99;81.71
8717;BME280;4395;48.554;8.820;2023-12-29T05:52:18;95882.69;;;8.00;81.49
8717;BME280;4395;48.554;8.820;2023-12-29T05:54:20;95885.06;;;8.01;81.64
8717;BME280;4395;48.554;8.820;2023-12-29T05:56:23;95891.59;;;8.04;81.74
8717;BME280;4395;48.554;8.820;2023-12-29T05:58:27;95894.41;;;8.02;81.79
8717;BME280;4395;48.554;8.820;2023-12-29T06:00:31;95894.25;;;8.09;81.52
8717;BME280;4395;48.554;8.820;2023-12-29T06:02:34;95901.97;;;8.04;81.53
8717;BME280;4395;48.554;8.820;2023-12-29T06:04:37;95900.69;;;8.06;81.50
8717;BME280;4395;48.554;8.820;2023-12-29T06:06:41;95909.03;;;8.08;81.52
8717;BME280;4395;48.554;8.820;2023-12-29T06:08:44;95908.25;;;8.08;81.56
8717;BME280;4395;48.554;8.820;2023-12-29T06:10:47;95902.03;;;8.09;81.61
8717;BME280;4395;48.554;8.820;2023-12-29T06:12:50;95901.00;;;8.10;81.52
8717;BME280;4395;48.554;8.820;2023-12-29T06:14:52;95903.59;;;8.10;81.85
8717;BME280;4395;48.554;8.820;2023-12-29T06:16:56;95910.56;;;8.09;81.74
8717;BME280;4395;48.554;8.820;2023-12-29T06:18:59;95905.41;;;8.09;81.65
8717;BME280;4395;48.554;8.820;2023-12-29T06:21:02;95908.53;;;8.11;82.00
8717;BME280;4395;48.554;8.820;2023-12-29T06:23:05;95895.34;;;8.13;81.86
8717;BME280;4395;48.554;8.820;2023-12-29T06:25:09;95903.59;;;8.10;82.33
8717;BME280;4395;48.554;8.820;2023-12-29T06:27:12;95891.19;;;8.12;82.23
8717;BME280;4395;48.554;8.820;2023-12-29T06:29:15;95893.78;;;8.12;82.11
8717;BME280;4395;48.554;8.820;2023-12-29T06:31:18;95902.03;;;8.09;82.24
8717;BME280;4395;48.554;8.820;2023-12-29T06:33:23;95894.25;;;8.09;82.26
8717;BME280;4395;48.554;8.820;2023-12-29T06:35:26;95899.44;;;8.09;82.33
8717;BME280;4395;48.554;8.820;2023-12-29T06:37:29;95901.50;;;8.07;82.55
8717;BME280;4395;48.554;8.820;2023-12-29T06:39:31;95897.09;;;8.07;82.77
8717;BME280;4395;48.554;8.820;2023-12-29T06:41:34;95900.47;;;8.08;82.81
8717;BME280;4395;48.554;8.820;2023-12-29T06:43:37;95896.78;;;8.04;82.64
8717;BME280;4395;48.554;8.820;2023-12-29T06:45:40;95895.97;;;8.03;82.84
8717;BME280;4395;48.554;8.820;2023-12-29T06:47:43;95880.09;;;8.00;82.96
8717;BME280;4395;48.554;8.820;2023-12-29T06:49:48;95890.25;;;8.01;83.15
8717;BME280;4395;48.554;8.820;2023-12-29T06:51:51;95895.09;;;7.97;83.25
8717;BME280;4395;48.554;8.820;2023-12-29T06:53:54;95881.63;;;7.95;83.60
8717;BME280;4395;48.554;8.820;2023-12-29T06:55:57;95881.63;;;7.95;83.50
8717;BME280;4395;48.554;8.820;2023-12-29T06:58:00;95882.63;;;7.94;83.47
8717;BME280;4395;48.554;8.820;2023-12-29T07:00:05;95877.44;;;7.94;83.74
8717;BME280;4395;48.554;8.820;2023-12-29T07:02:08;95881.63;;;7.95;83.65
8717;BME280;4395;48.554;8.820;2023-12-29T07:04:11;95875.88;;;7.93;83.51
8717;BME280;4395;48.554;8.820;2023-12-29T07:06:16;95871.78;;;7.97;83.64
8717;BME280;4395;48.554;8.820;2023-12-29T07:08:19;95866.13;;;8.01;83.51
8717;BME280;4395;48.554;8.820;2023-12-29T07:10:22;95868.94;;;7.99;83.61
8717;BME280;4395;48.554;8.820;2023-12-29T07:12:25;95881.69;;;8.01;83.45
8717;BME280;4395;48.554;8.820;2023-12-29T07:14:28;95876.25;;;8.02;83.46
8717;BME280;4395;48.554;8.820;2023-12-29T07:16:31;95874.78;;;8.06;83.19
8717;BME280;4395;48.554;8.820;2023-12-29T07:18:34;95884.34;;;8.06;83.31
8717;BME280;4395;48.554;8.820;2023-12-29T07:20:37;95876.34;;;8.07;83.26
8717;BME280;4395;48.554;8.820;2023-12-29T07:22:41;95880.75;;;8.07;83.03
8717;BME280;4395;48.554;8.820;2023-12-29T07:24:44;95880.25;;;8.10;83.23
8717;BME280;4395;48.554;8.820;2023-12-29T07:26:47;95879.78;;;8.13;83.07
8717;BME280;4395;48.554;8.820;2023-12-29T07:28:50;95883.47;;;8.17;82.83
8717;BME280;4395;48.554;8.820;2023-12-29T07:30:55;95884.03;;;8.19;82.71
8717;BME280;4395;48.554;8.820;2023-12-29T07:32:58;95885.59;;;8.20;82.45
8717;BME280;4395;48.554;8.820;2023-12-29T07:35:03;95890.78;;;8.20;82.47
8717;BME280;4395;48.554;8.820;2023-12-29T07:37:06;95889.03;;;8.25;82.41
8717;BME280;4395;48.554;8.820;2023-12-29T07:39:11;95888.25;;;8.25;82.01
8717;BME280;4395;48.554;8.820;2023-12-29T07:41:13;95882.59;;;8.28;82.06
8717;BME280;4395;48.554;8.820;2023-12-29T07:43:16;95887.78;;;8.28;81.93
8717;BME280;4395;48.554;8.820;2023-12-29T07:45:19;95885.75;;;8.30;81.88
8717;BME280;4395;48.554;8.820;2023-12-29T07:47:22;95885.19;;;8.28;81.56
8717;BME280;4395;48.554;8.820;2023-12-29T07:49:25;95883.16;;;8.30;81.56
8717;BME280;4395;48.554;8.820;2023-12-29T07:51:29;95886.53;;;8.30;81.67
8717;BME280;4395;48.554;8.820;2023-12-29T07:53:31;95893.28;;;8.48;82.27
8717;BME280;4395;48.554;8.820;2023-12-29T07:55:38;95883.19;;;8.52;81.34
8717;BME280;4395;48.554;8.820;2023-12-29T07:57:42;95890.19;;;8.51;80.77
8717;BME280;4395;48.554;8.820;2023-12-29T07:59:45;95888.63;;;8.50;80.57
8717;BME280;4395;48.554;8.820;2023-12-29T08:01:48;95891.16;;;8.45;80.85
8717;BME280;4395;48.554;8.820;2023-12-29T08:03:51;95890.06;;;8.41;80.84
8717;BME280;4395;48.554;8.820;2023-12-29T08:05:53;95890.13;;;8.46;80.85
8717;BME280;4395;48.554;8.820;2023-12-29T08:07:56;95896.59;;;8.44;81.29
8717;BME280;4395;48.554;8.820;2023-12-29T08:09:59;95895.81;;;8.43;81.29
8717;BME280;4395;48.554;8.820;2023-12-29T08:12:04;95898.94;;;8.45;81.68
8717;BME280;4395;48.554;8.820;2023-12-29T08:14:07;95898.47;;;8.48;81.68
8717;BME280;4395;48.554;8.820;2023-12-29T08:16:09;95903.66;;;8.48;81.23
8717;BME280;4395;48.554;8.820;2023-12-29T08:18:12;95904.44;;;8.49;81.51
8717;BME280;4395;48.554;8.820;2023-12-29T08:20:15;95918.19;;;8.49;81.51
8717;BME280;4395;48.554;8.820;2023-12-29T08:22:19;95923.94;;;8.51;81.27
8717;BME280;4395;48.554;8.820;2023-12-29T08:24:22;95915.13;;;8.52;81.57
8717;BME280;4395;48.554;8.820;2023-12-29T08:26:24;95915.38;;;8.51;81.40
8717;BME280;4395;48.554;8.820;2023-12-29T08:28:29;95919.06;;;8.55;81.19
8717;BME280;4395;48.554;8.820;2023-12-29T08:30:34;95915.13;;;8.52;81.21
8717;BME280;4395;48.554;8.820;2023-12-29T08:32:36;95924.41;;;8.48;81.61
8717;BME280;4395;48.554;8.820;2023-12-29T08:34:39;95913.47;;;8.46;81.57
8717;BME280;4395;48.554;8.820;2023-12-29T08:36:41;95906.72;;;8.45;81.87
8717;BME280;4395;48.554;8.820;2023-12-29T08:38:44;95910.34;;;8.44;81.90
8717;BME280;4395;48.554;8.820;2023-12-29T08:40:46;95915.00;;;8.42;81.87
8717;BME280;4395;48.554;8.820;2023-12-29T08:42:49;95914.50;;;8.45;81.81
8717;BME280;4395;48.554;8.820;2023-12-29T08:44:53;95917.59;;;8.42;82.14
8717;BME280;4395;48.554;8.820;2023-12-29T08:46:56;95904.63;;;8.42;82.17
8717;BME280;4395;48.554;8.820;2023-12-29T08:48:58;95909.81;;;8.42;82.19
8717;BME280;4395;48.554;8.820;2023-12-29T08:51:02;95909.81;;;8.42;82.37
8717;BME280;4395;48.554;8.820;2023-12-29T08:53:04;95911.84;;;8.40;82.52
8717;BME280;4395;48.554;8.820;2023-12-29T08:55:07;95906.66;;;8.40;82.92
8717;BME280;4395;48.554;8.820;2023-12-29T08:57:11;95902.03;;;8.42;82.86
8717;BME280;4395;48.554;8.820;2023-12-29T08:59:14;95904.66;;;8.47;83.10
8717;BME280;4395;48.554;8.820;2023-12-29T09:01:18;95908.38;;;8.51;82.97
8717;BME280;4395;48.554;8.820;2023-12-29T09:03:21;95904.28;;;8.55;82.85
8717;BME280;4395;48.554;8.820;2023-12-29T09:05:23;95910.78;;;8.58;83.00
8717;BME280;4395;48.554;8.820;2023-12-29T09:07:25;95909.53;;;8.60;82.53
8717;BME280;4395;48.554;8.820;2023-12-29T09:09:29;95912.13;;;8.60;82.59
8717;BME280;4395;48.554;8.820;2023-12-29T09:11:32;95918.31;;;8.59;82.84
8717;BME280;4395;48.554;8.820;2023-12-29T09:13:34;95912.13;;;8.60;82.61
8717;BME280;4395;48.554;8.820;2023-12-29T09:15:37;95912.19;;;8.65;82.58
8717;BME280;4395;48.554;8.820;2023-12-29T09:17:41;95914.31;;;8.69;82.36
8717;BME280;4395;48.554;8.820;2023-12-29T09:19:45;95914.13;;;8.75;82.34
8717;BME280;4395;48.554;8.820;2023-12-29T09:21:54;95921.63;;;8.93;82.62
8717;BME280;4395;48.554;8.820;2023-12-29T09:23:57;95920.78;;;8.88;81.48
8717;BME280;4395;48.554;8.820;2023-12-29T09:26:00;95924.81;;;8.79;81.35
8717;BME280;4395;48.554;8.820;2023-12-29T09:28:03;95921.69;;;8.77;81.89
8717;BME280;4395;48.554;8.820;2023-12-29T09:30:07;95926.31;;;8.75;81.90
8717;BME280;4395;48.554;8.820;2023-12-29T09:32:10;95932.06;;;8.77;82.10
8717;BME280;4395;48.554;8.820;2023-12-29T09:34:13;95929.81;;;8.85;82.12
8717;BME280;4395;48.554;8.820;2023-12-29T09:36:16;95938.41;;;8.86;81.99
8717;BME280;4395;48.554;8.820;2023-12-29T09:38:19;95945.72;;;8.89;81.69
8717;BME280;4395;48.554;8.820;2023-12-29T09:40:22;95936.94;;;8.95;81.83
8717;BME280;4395;48.554;8.820;2023-12-29T09:42:28;95946.94;;;9.03;81.81
8717;BME280;4395;48.554;8.820;2023-12-29T09:44:31;95939.19;;;9.08;81.79
8717;BME280;4395;48.554;8.820;2023-12-29T09:46:36;95942.94;;;9.17;81.47
8717;BME280;4395;48.554;8.820;2023-12-29T09:48:38;95945.28;;;9.19;81.17
8717;BME280;4395;48.554;8.820;2023-12-29T09:50:44;95948.25;;;9.27;81.31
8717;BME280;4395;48.554;8.820;2023-12-29T09:52:48;95943.34;;;9.31;81.26
8717;BME280;4395;48.554;8.820;2023-12-29T09:54:51;95938.44;;;9.34;81.14
8717;BME280;4395;48.554;8.820;2023-12-29T09:56:55;95937.47;;;9.41;80.77
8717;BME280;4395;48.554;8.820;2023-12-29T09:58:58;95941.38;;;9.43;80.57
8717;BME280;4395;48.554;8.820;2023-12-29T10:01:01;95934.91;;;9.46;80.02
8717;BME280;4395;48.554;8.820;2023-12-29T10:03:06;95943.25;;;9.48;79.75
8717;BME280;4395;48.554;8.820;2023-12-29T10:05:11;95940.66;;;9.48;80.39
8717;BME280;4395;48.554;8.820;2023-12-29T10:07:18;95930.31;;;9.53;79.64
8717;BME280;4395;48.554;8.820;2023-12-29T10:09:24;95927.72;;;9.53;79.84
8717;BME280;4395;48.554;8.820;2023-12-29T10:11:27;95920.97;;;9.52;78.05
8717;BME280;4395;48.554;8.820;2023-12-29T10:13:33;95924.03;;;9.49;78.09
8717;BME280;4395;48.554;8.820;2023-12-29T10:15:41;95923.56;;;9.52;77.89
8717;BME280;4395;48.554;8.820;2023-12-29T10:17:52;95921.50;;;9.54;77.97
8717;BME280;4395;48.554;8.820;2023-12-29T10:20:02;95918.06;;;9.48;77.58
8717;BME280;4395;48.554;8.820;2023-12-29T10:22:14;95916.19;;;9.44;77.63
8717;BME280;4395;48.554;8.820;2023-12-29T10:24:21;95914.66;;;9.48;77.59
8717;BME280;4395;48.554;8.820;2023-12-29T10:26:24;95904.28;;;9.48;77.11
8717;BME280;4395;48.554;8.820;2023-12-29T10:28:27;95902.75;;;9.52;77.53
8717;BME280;4395;48.554;8.820;2023-12-29T10:30:30;95900.66;;;9.49;77.59
8717;BME280;4395;48.554;8.820;2023-12-29T10:32:36;95909.53;;;9.53;77.74
8717;BME280;4395;48.554;8.820;2023-12-29T10:34:39;95902.25;;;9.55;77.19
8717;BME280;4395;48.554;8.820;2023-12-29T10:36:47;95890.59;;;9.57;77.57
8717;BME280;4395;48.554;8.820;2023-12-29T10:39:05;95895.53;;;9.59;76.78
8717;BME280;4395;48.554;8.820;2023-12-29T10:41:13;95890.09;;;9.60;76.83
8717;BME280;4395;48.554;8.820;2023-12-29T10:43:22;95889.44;;;9.75;77.44
8717;BME280;4395;48.554;8.820;2023-12-29T10:45:25;95883.84;;;9.93;77.33
8717;BME280;4395;48.554;8.820;2023-12-29T10:47:27;95888.53;;;9.91;75.19
8717;BME280;4395;48.554;8.820;2023-12-29T10:49:29;95885.66;;;9.88;74.58
8717;BME280;4395;48.554;8.820;2023-12-29T10:51:33;95883.84;;;9.93;75.19
8717;BME280;4395;48.554;8.820;2023-12-29T10:53:37;95876.63;;;10.00;75.52
8717;BME280;4395;48.554;8.820;2023-12-29T10:55:42;95881.88;;;10.05;73.46
8717;BME280;4395;48.554;8.820;2023-12-29T10:57:59;95864.06;;;10.24;75.30
8717;BME280;4395;48.554;8.820;2023-12-29T11:00:04;95860.50;;;10.35;73.01
8717;BME280;4395;48.554;8.820;2023-12-29T11:02:11;95857.00;;;10.20;72.72
8717;BME280;4395;48.554;8.820;2023-12-29T11:04:21;95866.16;;;10.22;73.88
8717;BME280;4395;48.554;8.820;2023-12-29T11:06:25;95870.13;;;10.35;73.94
8717;BME280;4395;48.554;8.820;2023-12-29T11:08:28;95877.44;;;10.43;72.39
8717;BME280;4395;48.554;8.820;2023-12-29T11:10:31;95867.63;;;10.55;72.28
8717;BME280;4395;48.554;8.820;2023-12-29T11:12:35;95853.34;;;10.68;71.86
8717;BME280;4395;48.554;8.820;2023-12-29T11:14:40;95871.97;;;10.97;72.51
8717;BME280;4395;48.554;8.820;2023-12-29T11:16:47;95853.56;;;11.34;72.07
8717;BME280;4395;48.554;8.820;2023-12-29T11:18:51;95849.59;;;11.16;68.56
8717;BME280;4395;48.554;8.820;2023-12-29T11:20:56;95850.41;;;11.22;69.88
8717;BME280;4395;48.554;8.820;2023-12-29T11:22:58;95848.28;;;11.24;68.39